CheckWX is a tool to help pilots better visualize weather data.  It is not intended as a substitute for an official pre-flight weather briefing.

21:03:34 UTC

CYYB METAR
North Bay Airport
North Bay, Canada
Current

18 mins ago

CYYB 232046Z 28019G27KT 1SM R08/5500VP6000FT/U -DZ BR OVC003 14/14 A2967 RMK FG4SF4 SLP054 DENSITY ALT 1700FT
Observed
May-23 @ 20:46 UTC
Wind
  • 280° at 19 KTS
  • Gusting to 27 KTS
Visibility
1 SM
Flight Rules
LIFR
Conditions
Light Drizzle, Mist
Cloud Levels
  • Overcast at 300' AGL
Temperature
14°C / 57°F
Dewpoint
14°C / 57°F
Humidity
100%
Altimeter
29.67" Hg
Pressure
1004.72 hPa
Previous

2 hours ago

CYYB 231900Z 18014KT 1 1/2SM -DZ BR BKN003 OVC008 14/14 A2969 RMK SF5SC3 SLP060 DENSITY ALT 1700FT
Observed
May-23 @ 19:00 UTC
Wind
  • 180° at 14 KTS
Visibility
1 1/2 SM
Flight Rules
LIFR
Conditions
Light Drizzle, Mist
Cloud Levels
  • Broken at 300' AGL
  • Overcast at 800' AGL
Temperature
14°C / 57°F
Dewpoint
14°C / 57°F
Humidity
100%
Altimeter
29.69" Hg
Pressure
1005.42 hPa
Previous

2 hours ago

CYYB 231848Z 18013KT 120V200 2SM -DZ BR SCT003 OVC008 14/14 A2969 RMK SF4ST4 SLP060 DENSITY ALT 1700FT
Observed
May-23 @ 18:48 UTC
Wind
  • 180° at 13 KTS
Visibility
2 SM
Flight Rules
IFR
Conditions
Light Drizzle, Mist
Cloud Levels
  • Scattered at 300' AGL
  • Overcast at 800' AGL
Temperature
14°C / 57°F
Dewpoint
14°C / 57°F
Humidity
100%
Altimeter
29.69" Hg
Pressure
1005.42 hPa